Time;durP1;ratioP1;P1;durP2;ratioP2;P2;SDS_P1;SDS_P2;PMS_P1;PMS_P2;Temp;Humidity;BMP_temperature;BMP_pressure;BME280_temperature;BME280_humidity;BME280_pressure;Samples;Min_cycle;Max_cycle;Signal;HPM_P1;HPM_P2
2023/06/30 00:00:15;;;;;;;3.30;2.30;;;21.80;99.90;;;;;;4972069;28;20035;-39
2023/06/30 00:02:46;;;;;;;5.60;2.78;;;21.80;99.90;;;;;;4972125;28;20088;-37
2023/06/30 00:05:13;;;;;;;5.50;2.75;;;21.80;99.90;;;;;;4971990;28;20057;-37
2023/06/30 00:07:39;;;;;;;4.18;2.85;;;21.80;99.90;;;;;;4972151;28;20390;-36
2023/06/30 00:10:06;;;;;;;5.38;2.40;;;21.80;99.90;;;;;;4972344;28;20101;-38
2023/06/30 00:12:32;;;;;;;4.75;2.80;;;21.80;99.90;;;;;;4972069;28;20039;-38
2023/06/30 00:14:58;;;;;;;5.40;2.33;;;21.80;99.90;;;;;;4971957;28;20034;-38
2023/06/30 00:17:23;;;;;;;5.65;2.88;;;21.80;99.90;;;;;;4972194;28;20023;-38
2023/06/30 00:19:50;;;;;;;3.60;2.45;;;21.80;99.90;;;;;;4973155;28;20065;-37
2023/06/30 00:22:19;;;;;;;3.78;2.38;;;21.80;99.90;;;;;;4971950;28;20037;-38
2023/06/30 00:24:46;;;;;;;8.55;2.67;;;21.80;99.90;;;;;;4971801;28;20070;-36
2023/06/30 00:27:12;;;;;;;3.65;2.42;;;21.80;99.90;;;;;;4972556;28;20026;-38
2023/06/30 00:29:37;;;;;;;2.72;2.25;;;21.80;99.90;;;;;;4971811;28;20438;-37
2023/06/30 00:32:04;;;;;;;4.13;2.60;;;21.80;99.90;;;;;;4973630;28;20566;-37
2023/06/30 00:34:30;;;;;;;3.33;2.20;;;21.80;99.90;;;;;;4974767;28;20027;-38
2023/06/30 00:36:55;;;;;;;2.85;2.22;;;21.80;99.90;;;;;;4977424;28;20080;-37
2023/06/30 00:39:21;;;;;;;2.97;2.40;;;21.80;99.90;;;;;;4975109;28;20058;-37
2023/06/30 00:41:46;;;;;;;3.60;2.65;;;21.80;99.90;;;;;;4975345;28;20027;-38
2023/06/30 00:44:12;;;;;;;3.17;2.70;;;21.80;99.90;;;;;;4975812;28;20073;-38
2023/06/30 00:46:37;;;;;;;2.55;1.98;;;21.80;99.90;;;;;;4975820;28;20546;-37
2023/06/30 00:49:03;;;;;;;3.63;2.58;;;21.80;99.90;;;;;;4976596;28;20027;-38
2023/06/30 00:51:29;;;;;;;4.05;2.30;;;21.80;99.90;;;;;;4975236;28;20039;-37
2023/06/30 00:53:55;;;;;;;3.40;2.53;;;21.80;99.90;;;;;;4974935;28;20042;-37
2023/06/30 00:56:20;;;;;;;2.92;2.42;;;21.80;99.90;;;;;;4975056;28;20042;-37
2023/06/30 00:58:46;;;;;;;3.88;2.40;;;21.80;99.90;;;;;;4974954;28;20031;-37
2023/06/30 01:01:41;;;;;;;2.88;2.40;;;21.80;99.90;;;;;;4975744;28;20035;-37
2023/06/30 01:04:15;;;;;;;4.43;2.60;;;21.80;99.90;;;;;;4975495;28;20427;-38
2023/06/30 01:07:03;;;;;;;3.58;2.50;;;21.80;99.90;;;;;;4974908;28;20564;-37
2023/06/30 01:09:34;;;;;;;4.65;2.53;;;21.70;99.90;;;;;;4974652;28;20018;-35
2023/06/30 01:12:00;;;;;;;3.70;2.40;;;21.80;99.90;;;;;;4974918;28;20022;-37
2023/06/30 01:14:29;;;;;;;4.25;2.45;;;21.70;99.90;;;;;;4974785;28;20449;-37
2023/06/30 01:16:55;;;;;;;5.50;2.90;;;21.70;99.90;;;;;;4974665;28;20101;-37
2023/06/30 01:19:34;;;;;;;2.88;2.38;;;21.70;99.90;;;;;;4974551;28;20551;-37
2023/06/30 01:22:07;;;;;;;4.47;2.33;;;21.70;99.90;;;;;;4975312;28;20027;-37
2023/06/30 01:24:35;;;;;;;4.97;2.88;;;21.70;99.90;;;;;;4974572;28;20030;-38
2023/06/30 01:27:02;;;;;;;2.72;2.15;;;21.70;99.90;;;;;;4974670;28;20019;-37
2023/06/30 01:29:28;;;;;;;3.45;2.60;;;21.70;99.90;;;;;;4974272;28;20102;-37
2023/06/30 01:31:54;;;;;;;5.50;3.00;;;21.70;99.90;;;;;;4974561;28;20044;-37
2023/06/30 01:34:19;;;;;;;3.95;2.30;;;21.70;99.90;;;;;;4973138;28;20138;-37
2023/06/30 01:36:47;;;;;;;6.22;2.80;;;21.70;99.90;;;;;;4974544;28;20023;-37
2023/06/30 01:39:15;;;;;;;3.00;2.20;;;21.70;99.90;;;;;;4974310;28;20085;-38
2023/06/30 01:41:42;;;;;;;3.72;2.50;;;21.70;99.90;;;;;;4974260;28;20019;-38
2023/06/30 01:44:09;;;;;;;3.38;2.50;;;21.70;99.90;;;;;;4974497;28;20034;-36
2023/06/30 01:46:34;;;;;;;3.00;2.30;;;21.70;99.90;;;;;;4972107;28;20027;-36
2023/06/30 01:49:00;;;;;;;3.47;2.60;;;21.70;99.90;;;;;;4973964;28;20023;-38
2023/06/30 01:51:26;;;;;;;4.28;2.70;;;21.70;99.90;;;;;;4975823;28;20113;-39
2023/06/30 01:53:51;;;;;;;4.32;2.95;;;21.70;99.90;;;;;;4974363;28;20100;-38
2023/06/30 01:56:17;;;;;;;3.65;2.35;;;21.70;99.90;;;;;;4973936;28;20030;-38
2023/06/30 01:58:42;;;;;;;2.40;2.20;;;21.70;99.90;;;;;;4974618;28;20031;-38
2023/06/30 02:01:08;;;;;;;3.60;2.60;;;21.70;99.90;;;;;;4974952;28;20034;-38
2023/06/30 02:03:34;;;;;;;2.97;2.20;;;21.70;99.90;;;;;;4974090;28;20027;-38
2023/06/30 02:06:00;;;;;;;5.28;2.33;;;21.70;99.90;;;;;;4973844;28;20047;-38
2023/06/30 02:08:26;;;;;;;3.00;2.10;;;21.70;99.90;;;;;;4973875;28;20019;-36
2023/06/30 02:10:52;;;;;;;4.07;2.45;;;21.70;99.90;;;;;;4974230;28;20054;-37
2023/06/30 02:13:17;;;;;;;3.15;2.15;;;21.70;99.90;;;;;;4973529;28;20109;-38
2023/06/30 02:15:43;;;;;;;3.10;2.25;;;21.70;99.90;;;;;;4974197;28;20073;-37
2023/06/30 02:18:08;;;;;;;3.50;2.58;;;21.70;99.90;;;;;;4973926;28;20042;-38
2023/06/30 02:20:34;;;;;;;3.63;2.30;;;21.70;99.90;;;;;;4973335;28;20109;-37
2023/06/30 02:22:59;;;;;;;3.70;2.47;;;21.70;99.90;;;;;;4973406;28;20121;-38
2023/06/30 02:25:25;;;;;;;4.43;2.63;;;21.70;99.90;;;;;;4973379;28;20109;-38
2023/06/30 02:27:52;;;;;;;3.58;2.30;;;21.70;99.90;;;;;;4974257;28;20031;-38
2023/06/30 02:30:18;;;;;;;3.80;2.47;;;21.70;99.90;;;;;;4973511;28;20023;-35
2023/06/30 02:32:44;;;;;;;3.97;2.40;;;21.70;99.90;;;;;;4973377;28;20074;-36
2023/06/30 02:35:09;;;;;;;4.03;2.50;;;21.70;99.90;;;;;;4973295;28;20031;-37
2023/06/30 02:37:36;;;;;;;4.90;2.60;;;21.70;99.90;;;;;;4973266;28;20490;-38
2023/06/30 02:40:02;;;;;;;3.47;2.10;;;21.70;99.90;;;;;;4972942;28;20027;-38
2023/06/30 02:42:27;;;;;;;3.33;2.15;;;21.70;99.90;;;;;;4973530;28;20450;-36
2023/06/30 02:44:53;;;;;;;4.30;2.60;;;21.70;99.90;;;;;;4973472;28;20070;-38
2023/06/30 02:47:18;;;;;;;5.63;2.67;;;21.70;99.90;;;;;;4973161;28;20422;-37
2023/06/30 02:49:44;;;;;;;4.75;2.70;;;21.70;99.90;;;;;;4973355;28;20026;-38
2023/06/30 02:52:10;;;;;;;3.05;2.40;;;21.70;99.90;;;;;;4974002;28;20353;-37
2023/06/30 02:54:35;;;;;;;3.67;2.40;;;21.70;99.90;;;;;;4972876;28;20026;-38
2023/06/30 02:57:01;;;;;;;3.63;2.38;;;21.60;99.90;;;;;;4972782;28;20180;-35
2023/06/30 02:59:26;;;;;;;2.90;2.30;;;21.70;99.90;;;;;;4972732;28;20038;-38
2023/06/30 03:01:52;;;;;;;3.95;2.55;;;21.70;99.90;;;;;;4972754;28;20062;-36
2023/06/30 03:04:18;;;;;;;3.67;2.53;;;21.70;99.90;;;;;;4972605;28;20109;-39
2023/06/30 03:06:43;;;;;;;6.15;2.50;;;21.70;99.90;;;;;;4972826;28;20411;-36
2023/06/30 03:09:09;;;;;;;4.20;2.97;;;21.70;99.90;;;;;;4972509;28;20031;-37
2023/06/30 03:11:34;;;;;;;5.00;2.20;;;21.70;99.90;;;;;;4972615;28;20058;-38
2023/06/30 03:14:00;;;;;;;4.93;2.50;;;21.60;99.90;;;;;;4972573;28;20019;-36
2023/06/30 03:16:26;;;;;;;3.38;2.35;;;21.60;99.90;;;;;;4972983;28;20105;-37
2023/06/30 03:18:52;;;;;;;5.20;2.70;;;21.70;99.90;;;;;;4972975;28;20163;-38
2023/06/30 03:21:17;;;;;;;9.02;3.08;;;21.70;99.90;;;;;;4973049;28;20038;-37
2023/06/30 03:23:43;;;;;;;3.35;2.40;;;21.60;99.90;;;;;;4973478;28;20019;-38
2023/06/30 03:26:09;;;;;;;2.60;2.28;;;21.70;99.90;;;;;;4973123;28;20027;-37
2023/06/30 03:28:35;;;;;;;3.45;2.35;;;21.60;99.90;;;;;;4988054;28;20408;-38
2023/06/30 03:31:01;;;;;;;4.90;2.42;;;21.60;99.90;;;;;;4972777;28;20094;-38
2023/06/30 03:33:27;;;;;;;3.65;2.20;;;21.70;99.90;;;;;;4973566;28;20486;-38
2023/06/30 03:35:52;;;;;;;3.33;2.40;;;21.60;99.90;;;;;;4972626;28;20618;-37
2023/06/30 03:38:18;;;;;;;4.18;2.55;;;21.60;99.90;;;;;;4972791;28;20057;-38
2023/06/30 03:40:43;;;;;;;3.13;2.22;;;21.60;99.90;;;;;;4971114;28;20505;-38
2023/06/30 03:43:10;;;;;;;3.08;2.28;;;21.60;99.90;;;;;;4972214;28;20070;-37
2023/06/30 03:45:37;;;;;;;5.75;2.60;;;21.60;99.90;;;;;;4972990;28;20074;-37
2023/06/30 03:48:03;;;;;;;7.05;2.60;;;21.60;99.90;;;;;;4972518;28;20106;-38
2023/06/30 03:50:29;;;;;;;5.13;2.58;;;21.60;99.90;;;;;;4973742;28;20102;-37
2023/06/30 03:52:54;;;;;;;5.22;2.50;;;21.60;99.90;;;;;;4973196;28;20034;-38
2023/06/30 03:55:20;;;;;;;3.72;2.65;;;21.60;99.90;;;;;;4972982;28;20037;-37
2023/06/30 03:57:46;;;;;;;3.65;2.50;;;21.60;99.90;;;;;;4972273;28;20081;-38
2023/06/30 04:00:12;;;;;;;2.72;2.33;;;21.60;99.90;;;;;;4972074;28;20179;-39
2023/06/30 04:02:39;;;;;;;4.13;2.33;;;21.60;99.90;;;;;;4972031;28;20038;-37
2023/06/30 04:05:05;;;;;;;3.75;2.72;;;21.60;99.90;;;;;;4972111;28;20037;-38
2023/06/30 04:07:30;;;;;;;4.47;2.30;;;21.60;99.90;;;;;;4972426;28;20023;-38
2023/06/30 04:09:56;;;;;;;3.58;2.50;;;21.60;99.90;;;;;;4973672;28;20442;-36
2023/06/30 04:12:22;;;;;;;3.00;2.30;;;21.60;99.90;;;;;;4976333;28;20015;-37
2023/06/30 04:14:48;;;;;;;4.07;2.30;;;21.60;99.90;;;;;;4975816;28;20073;-38
2023/06/30 04:17:14;;;;;;;6.70;2.50;;;21.60;99.90;;;;;;4975863;28;20423;-37
2023/06/30 04:19:39;;;;;;;4.28;2.60;;;21.60;99.90;;;;;;4976016;28;20066;-36
2023/06/30 04:22:05;;;;;;;7.03;2.97;;;21.50;99.90;;;;;;4975636;28;20478;-37
2023/06/30 04:24:31;;;;;;;4.97;2.72;;;21.60;99.90;;;;;;4976957;28;20059;-36
2023/06/30 04:26:56;;;;;;;7.47;3.33;;;21.60;99.90;;;;;;4975688;28;20482;-37
2023/06/30 04:29:22;;;;;;;4.47;2.67;;;21.60;99.90;;;;;;4975690;28;20031;-38
2023/06/30 04:31:48;;;;;;;4.88;3.10;;;21.60;99.90;;;;;;4975613;28;20023;-38
2023/06/30 04:34:13;;;;;;;5.57;3.40;;;21.60;99.90;;;;;;4975443;28;20486;-35
2023/06/30 04:36:39;;;;;;;4.15;2.90;;;21.60;99.90;;;;;;4975519;28;20510;-38
2023/06/30 04:39:04;;;;;;;5.15;2.72;;;21.60;99.90;;;;;;4975216;28;20159;-38
2023/06/30 04:41:30;;;;;;;5.13;2.95;;;21.60;99.90;;;;;;4975481;28;20027;-38
2023/06/30 04:43:56;;;;;;;5.18;2.95;;;21.60;99.90;;;;;;4973947;28;20034;-37
2023/06/30 04:46:24;;;;;;;6.07;3.00;;;21.60;99.90;;;;;;4975360;28;20398;-37
2023/06/30 04:48:49;;;;;;;3.97;2.78;;;21.60;99.90;;;;;;4975726;28;20019;-35
2023/06/30 04:51:15;;;;;;;5.53;3.00;;;21.60;99.90;;;;;;4975940;28;20038;-37
2023/06/30 04:53:41;;;;;;;4.53;2.65;;;21.50;99.90;;;;;;4975949;28;20118;-37
2023/06/30 04:56:06;;;;;;;4.93;2.67;;;21.60;99.90;;;;;;4975276;28;20031;-38
2023/06/30 04:58:32;;;;;;;3.63;2.63;;;21.60;99.90;;;;;;4975128;28;20542;-37
2023/06/30 05:00:57;;;;;;;4.32;2.75;;;21.50;99.90;;;;;;4974835;28;20503;-36
2023/06/30 05:03:23;;;;;;;5.85;3.33;;;21.60;99.90;;;;;;4975081;28;20022;-38
2023/06/30 05:05:49;;;;;;;3.08;2.60;;;21.60;99.90;;;;;;4974902;28;20058;-37
2023/06/30 05:08:14;;;;;;;6.63;3.03;;;21.60;99.90;;;;;;4974909;28;20101;-38
2023/06/30 05:10:40;;;;;;;6.43;3.03;;;21.60;99.90;;;;;;4975022;28;20068;-38
2023/06/30 05:13:05;;;;;;;5.40;3.00;;;21.60;99.90;;;;;;4975749;28;20026;-38
2023/06/30 05:15:31;;;;;;;5.32;3.10;;;21.60;99.90;;;;;;4975891;28;20030;-37
2023/06/30 05:17:57;;;;;;;4.60;3.10;;;21.60;99.90;;;;;;4973758;28;20034;-37
2023/06/30 05:20:22;;;;;;;6.50;3.30;;;21.60;99.90;;;;;;4973810;28;20082;-39
2023/06/30 05:22:48;;;;;;;3.83;3.03;;;21.60;99.90;;;;;;4974098;28;20035;-35
2023/06/30 05:25:14;;;;;;;5.60;2.90;;;21.60;99.90;;;;;;4974896;28;20098;-37
2023/06/30 05:27:39;;;;;;;4.43;3.03;;;21.60;99.90;;;;;;4974627;28;20033;-37
2023/06/30 05:30:06;;;;;;;5.07;3.13;;;21.50;99.90;;;;;;4974730;28;20030;-38
2023/06/30 05:32:31;;;;;;;5.95;3.03;;;21.60;99.90;;;;;;4974516;28;20035;-37
2023/06/30 05:34:57;;;;;;;5.90;3.08;;;21.50;99.90;;;;;;4975441;28;20034;-37
2023/06/30 05:37:22;;;;;;;5.97;3.03;;;21.60;99.90;;;;;;4974761;28;20041;-38
2023/06/30 05:39:48;;;;;;;3.42;2.83;;;21.50;99.90;;;;;;4974192;28;20029;-38
2023/06/30 05:42:14;;;;;;;5.65;3.30;;;21.60;99.90;;;;;;4974257;28;20549;-39
2023/06/30 05:44:39;;;;;;;5.07;2.97;;;21.60;99.90;;;;;;4973243;28;20030;-36
2023/06/30 05:47:05;;;;;;;7.28;3.05;;;21.50;99.90;;;;;;4974717;28;20491;-36
2023/06/30 05:49:31;;;;;;;7.65;3.20;;;21.50;99.90;;;;;;4974411;28;20057;-37
2023/06/30 05:51:57;;;;;;;5.13;3.05;;;21.60;99.90;;;;;;4974367;28;20098;-38
2023/06/30 05:54:23;;;;;;;4.65;2.80;;;21.60;99.90;;;;;;4974322;28;20231;-37
2023/06/30 05:56:49;;;;;;;4.65;3.25;;;21.60;99.90;;;;;;4974235;28;20559;-37
2023/06/30 05:59:14;;;;;;;4.40;2.88;;;21.50;99.90;;;;;;4973916;28;20566;-36
2023/06/30 06:01:40;;;;;;;5.85;3.10;;;21.50;99.90;;;;;;4973952;28;20038;-37
2023/06/30 06:04:10;;;;;;;6.05;3.22;;;21.50;99.90;;;;;;4973737;28;20613;-38
2023/06/30 06:06:37;;;;;;;4.68;3.03;;;21.60;99.90;;;;;;4974243;28;20077;-37
2023/06/30 06:09:03;;;;;;;5.38;3.35;;;21.50;99.90;;;;;;4974601;28;20074;-36
2023/06/30 06:11:28;;;;;;;4.95;2.83;;;21.50;99.90;;;;;;4973822;28;20045;-40
2023/06/30 06:13:54;;;;;;;5.15;2.78;;;21.50;99.90;;;;;;4973649;28;20474;-37
2023/06/30 06:16:21;;;;;;;4.70;2.97;;;21.60;99.90;;;;;;4974269;28;20159;-37
2023/06/30 06:18:48;;;;;;;4.03;3.30;;;21.50;99.90;;;;;;4973473;28;20035;-35
2023/06/30 06:21:13;;;;;;;7.57;3.65;;;21.50;99.90;;;;;;4973466;28;20612;-37
2023/06/30 06:23:39;;;;;;;5.80;3.40;;;21.50;99.90;;;;;;4973520;28;20070;-38
2023/06/30 06:26:05;;;;;;;4.97;3.40;;;21.50;99.90;;;;;;4973488;28;20483;-35
2023/06/30 06:28:30;;;;;;;6.68;3.72;;;21.50;99.90;;;;;;4973491;28;20038;-38
2023/06/30 06:30:56;;;;;;;5.35;3.20;;;21.50;99.90;;;;;;4974465;28;20042;-38
2023/06/30 06:33:22;;;;;;;5.10;3.45;;;21.60;99.90;;;;;;4973279;28;20115;-38
2023/06/30 06:35:51;;;;;;;6.47;3.85;;;21.50;99.90;;;;;;4973221;28;20033;-36
2023/06/30 06:38:17;;;;;;;7.30;3.75;;;21.50;99.90;;;;;;4973245;28;20491;-37
2023/06/30 06:40:47;;;;;;;4.63;3.83;;;21.50;99.90;;;;;;4972991;28;20027;-36
2023/06/30 06:43:12;;;;;;;6.03;3.35;;;21.60;99.90;;;;;;4974185;28;20494;-36
2023/06/30 06:45:38;;;;;;;5.25;3.70;;;21.50;99.90;;;;;;4973835;28;20027;-38
2023/06/30 06:48:22;;;;;;;6.00;3.67;;;21.50;99.90;;;;;;4973022;28;20023;-37
2023/06/30 06:50:52;;;;;;;6.68;4.03;;;21.50;99.90;;;;;;4973524;28;20026;-38
2023/06/30 06:53:35;;;;;;;5.88;3.65;;;21.50;99.90;;;;;;4973955;28;20027;-37
2023/06/30 06:56:02;;;;;;;6.00;4.22;;;21.50;99.90;;;;;;4973566;28;20030;-37
2023/06/30 06:58:29;;;;;;;6.65;3.50;;;21.50;99.90;;;;;;4972840;28;20379;-38
2023/06/30 07:00:56;;;;;;;6.80;4.57;;;21.50;99.90;;;;;;4972725;28;20634;-37
2023/06/30 07:03:22;;;;;;;7.55;4.85;;;21.50;99.90;;;;;;4972916;28;20085;-37
2023/06/30 07:05:48;;;;;;;7.53;4.57;;;21.50;99.90;;;;;;4988043;28;20106;-37
2023/06/30 07:08:16;;;;;;;6.35;4.85;;;21.50;99.90;;;;;;4973334;28;20019;-38
2023/06/30 07:10:42;;;;;;;7.32;5.15;;;21.50;99.90;;;;;;4972671;28;20394;-36
2023/06/30 07:13:08;;;;;;;6.45;4.60;;;21.60;99.90;;;;;;4973114;28;20027;-38
2023/06/30 07:15:34;;;;;;;9.05;5.53;;;21.50;99.90;;;;;;4972911;28;20029;-38
2023/06/30 07:18:00;;;;;;;11.15;6.07;;;21.50;99.90;;;;;;4972630;28;20027;-38
2023/06/30 07:20:26;;;;;;;11.30;6.82;;;21.50;99.90;;;;;;4972465;28;20027;-37
2023/06/30 07:22:54;;;;;;;9.48;6.00;;;21.50;99.90;;;;;;4973341;28;20030;-36
2023/06/30 07:25:21;;;;;;;9.45;5.93;;;21.50;99.90;;;;;;4973131;28;20025;-38
2023/06/30 07:27:52;;;;;;;8.35;5.72;;;21.50;99.90;;;;;;4973958;28;20030;-37
2023/06/30 07:30:20;;;;;;;10.07;5.93;;;21.50;99.90;;;;;;4974586;28;20027;-38
2023/06/30 07:32:46;;;;;;;9.55;6.15;;;21.50;99.90;;;;;;4972880;28;20040;-38
2023/06/30 07:35:12;;;;;;;10.02;6.88;;;21.50;99.90;;;;;;4972525;28;20034;-38
2023/06/30 07:37:38;;;;;;;8.98;6.28;;;21.50;99.90;;;;;;4973552;28;20026;-36
2023/06/30 07:40:04;;;;;;;9.65;6.35;;;21.50;99.90;;;;;;4972239;28;20063;-38
2023/06/30 07:42:30;;;;;;;10.35;5.90;;;21.50;99.90;;;;;;4972517;28;20113;-38
2023/06/30 07:44:55;;;;;;;10.02;6.28;;;21.50;99.90;;;;;;4974175;28;20485;-39
2023/06/30 07:47:21;;;;;;;9.68;6.22;;;21.50;99.90;;;;;;4976419;28;20030;-39
2023/06/30 07:49:46;;;;;;;11.35;7.40;;;21.50;99.90;;;;;;4976537;28;20034;-39
2023/06/30 07:52:12;;;;;;;10.98;6.57;;;21.50;99.90;;;;;;4976300;28;20027;-37
2023/06/30 07:54:38;;;;;;;13.02;6.55;;;21.50;99.90;;;;;;4976164;28;20502;-37
2023/06/30 07:57:04;;;;;;;11.35;6.90;;;21.50;99.90;;;;;;4976604;28;20035;-38
2023/06/30 07:59:29;;;;;;;12.95;7.28;;;21.50;99.90;;;;;;4975981;28;20023;-38
2023/06/30 08:01:55;;;;;;;10.52;6.80;;;21.50;99.90;;;;;;4976261;28;20121;-37
2023/06/30 08:04:21;;;;;;;10.48;5.78;;;21.50;99.90;;;;;;4975968;28;20031;-36
2023/06/30 08:06:47;;;;;;;10.25;6.45;;;21.50;99.90;;;;;;4976096;28;20033;-37
2023/06/30 08:09:13;;;;;;;10.23;6.60;;;21.50;99.90;;;;;;4977031;28;20495;-37
2023/06/30 08:11:39;;;;;;;10.00;6.72;;;21.50;99.90;;;;;;4975975;28;20027;-37
2023/06/30 08:14:06;;;;;;;10.13;6.15;;;21.50;99.90;;;;;;4975870;28;20529;-37
2023/06/30 08:16:32;;;;;;;12.82;7.00;;;21.50;99.90;;;;;;4976358;28;20022;-39
2023/06/30 08:18:58;;;;;;;10.23;6.50;;;21.50;99.90;;;;;;4975659;28;20042;-38
2023/06/30 08:21:24;;;;;;;11.00;6.82;;;21.50;99.90;;;;;;4975867;28;20033;-38
2023/06/30 08:23:50;;;;;;;9.70;6.00;;;21.50;99.90;;;;;;4975589;28;20023;-38
2023/06/30 08:26:16;;;;;;;11.45;6.90;;;21.50;99.90;;;;;;4975914;28;20030;-39
2023/06/30 08:28:42;;;;;;;11.50;6.95;;;21.50;99.90;;;;;;4975960;28;20094;-37
2023/06/30 08:31:07;;;;;;;10.15;7.28;;;21.50;99.90;;;;;;4975433;28;20019;-38
2023/06/30 08:33:33;;;;;;;10.93;6.53;;;21.50;99.90;;;;;;4975481;28;20030;-38
2023/06/30 08:36:00;;;;;;;10.50;6.47;;;21.50;99.90;;;;;;4975517;28;20023;-38
2023/06/30 08:38:25;;;;;;;8.88;6.45;;;21.50;99.90;;;;;;4975420;28;20038;-38
2023/06/30 08:40:51;;;;;;;10.20;6.50;;;21.50;99.90;;;;;;4975491;28;20027;-38
2023/06/30 08:43:22;;;;;;;10.40;6.70;;;21.50;99.90;;;;;;4975320;28;20405;-36
2023/06/30 08:45:52;;;;;;;10.73;6.63;;;21.40;99.90;;;;;;4975392;28;20082;-37
2023/06/30 08:48:20;;;;;;;9.43;7.03;;;21.50;99.90;;;;;;4975442;28;20034;-38
2023/06/30 08:50:47;;;;;;;12.20;6.32;;;21.50;99.90;;;;;;4975908;28;20049;-37
2023/06/30 08:53:13;;;;;;;9.38;6.07;;;21.50;99.90;;;;;;4976413;28;20023;-38
2023/06/30 08:55:39;;;;;;;8.40;6.18;;;21.50;99.90;;;;;;4974905;28;20030;-39
2023/06/30 08:58:05;;;;;;;9.55;6.45;;;21.50;99.90;;;;;;4975358;28;20097;-38
2023/06/30 09:00:31;;;;;;;9.73;6.35;;;21.50;99.90;;;;;;4974691;28;20118;-37
2023/06/30 09:02:58;;;;;;;10.50;6.63;;;21.50;99.90;;;;;;4975127;28;20046;-38
2023/06/30 09:05:25;;;;;;;9.13;5.88;;;21.50;99.90;;;;;;4975016;28;20033;-38
2023/06/30 09:07:54;;;;;;;10.75;6.70;;;21.40;99.90;;;;;;4975198;28;20062;-37
2023/06/30 09:10:23;;;;;;;9.35;6.28;;;21.50;99.90;;;;;;4974919;28;20027;-38
2023/06/30 09:12:51;;;;;;;10.63;7.00;;;21.40;99.90;;;;;;4975671;28;20033;-36
2023/06/30 09:15:22;;;;;;;10.10;6.68;;;21.50;99.90;;;;;;4975873;28;20027;-37
2023/06/30 09:17:47;;;;;;;7.65;5.72;;;21.50;99.90;;;;;;4973457;28;20506;-36
2023/06/30 09:20:13;;;;;;;11.43;6.70;;;21.40;99.90;;;;;;4974650;28;20085;-37
2023/06/30 09:22:43;;;;;;;8.23;5.70;;;21.40;99.90;;;;;;4974932;28;20027;-37
2023/06/30 09:25:27;;;;;;;10.50;6.35;;;21.50;99.90;;;;;;4974570;28;20042;-35
2023/06/30 09:27:56;;;;;;;9.80;6.40;;;21.50;99.90;;;;;;4974695;28;20070;-37
2023/06/30 09:30:36;;;;;;;9.82;6.38;;;21.50;99.90;;;;;;4973267;28;20031;-38
2023/06/30 09:33:02;;;;;;;9.88;6.60;;;21.50;99.90;;;;;;4973159;28;20027;-38
2023/06/30 09:35:38;;;;;;;10.90;6.30;;;21.50;99.90;;;;;;4975231;28;20030;-37
2023/06/30 09:38:12;;;;;;;9.57;6.30;;;21.40;99.90;;;;;;4974763;28;20068;-38
2023/06/30 09:40:41;;;;;;;8.10;5.93;;;21.50;99.90;;;;;;4974941;28;20049;-37
2023/06/30 09:43:07;;;;;;;8.07;5.78;;;21.50;99.90;;;;;;4974057;28;20049;-38
2023/06/30 09:45:33;;;;;;;9.32;6.25;;;21.50;99.90;;;;;;4974912;28;20019;-36
2023/06/30 09:47:59;;;;;;;8.52;5.53;;;21.40;99.90;;;;;;4974235;28;20031;-38
2023/06/30 09:50:30;;;;;;;7.50;6.10;;;21.40;99.90;;;;;;4974082;28;20026;-38
2023/06/30 09:52:55;;;;;;;8.35;6.35;;;21.50;99.90;;;;;;4974665;28;20110;-37
2023/06/30 09:55:21;;;;;;;8.82;5.90;;;21.50;99.90;;;;;;4974569;28;20110;-37
2023/06/30 09:57:47;;;;;;;8.70;5.80;;;21.50;99.90;;;;;;4974103;28;20062;-37
2023/06/30 10:00:14;;;;;;;14.13;5.93;;;21.40;99.90;;;;;;4974070;28;20521;-38
2023/06/30 10:02:40;;;;;;;8.35;5.80;;;21.40;99.90;;;;;;4974006;28;20082;-36
2023/06/30 10:05:08;;;;;;;8.63;5.88;;;21.40;99.90;;;;;;4974251;28;20042;-38
2023/06/30 10:07:34;;;;;;;10.68;5.68;;;21.50;99.90;;;;;;4973722;28;20029;-37
2023/06/30 10:10:01;;;;;;;8.40;5.78;;;21.50;99.90;;;;;;4974075;28;20102;-37
2023/06/30 10:12:28;;;;;;;7.18;5.70;;;21.50;99.90;;;;;;4973577;28;20038;-37
2023/06/30 10:14:55;;;;;;;7.85;5.47;;;21.50;99.90;;;;;;4973661;28;20022;-36
2023/06/30 10:17:20;;;;;;;8.02;5.95;;;21.50;99.90;;;;;;4973849;28;20552;-35
2023/06/30 10:19:47;;;;;;;9.45;5.68;;;21.50;99.90;;;;;;4975154;28;20102;-37
2023/06/30 10:22:13;;;;;;;9.07;6.00;;;21.50;99.90;;;;;;4973840;28;20041;-38
2023/06/30 10:24:43;;;;;;;10.02;6.22;;;21.50;99.90;;;;;;4973658;28;20494;-37
2023/06/30 10:27:12;;;;;;;8.20;5.85;;;21.50;99.90;;;;;;4973504;28;20059;-40
2023/06/30 10:29:38;;;;;;;9.35;6.38;;;21.50;99.90;;;;;;4973246;28;20026;-37
2023/06/30 10:32:04;;;;;;;8.75;6.15;;;21.50;99.90;;;;;;4973473;28;20015;-35
2023/06/30 10:34:30;;;;;;;8.70;5.75;;;21.40;99.90;;;;;;4974068;28;20041;-36
2023/06/30 10:36:58;;;;;;;7.95;5.60;;;21.40;99.90;;;;;;4973858;28;20058;-38
2023/06/30 10:39:25;;;;;;;8.57;5.78;;;21.50;99.90;;;;;;4973283;28;20031;-39
2023/06/30 10:41:51;;;;;;;7.80;5.60;;;21.40;99.90;;;;;;4973509;28;20382;-38
2023/06/30 10:44:20;;;;;;;8.18;5.80;;;21.50;99.90;;;;;;4973678;28;20029;-37
2023/06/30 10:46:52;;;;;;;7.57;5.78;;;21.50;99.90;;;;;;4973618;28;20027;-39
2023/06/30 10:49:24;;;;;;;8.00;6.03;;;21.50;99.90;;;;;;4972970;28;20030;-38
2023/06/30 10:51:51;;;;;;;7.57;5.50;;;21.50;99.90;;;;;;4973051;28;20082;-37
2023/06/30 10:54:24;;;;;;;8.82;5.47;;;21.50;99.90;;;;;;4973001;28;20050;-37
2023/06/30 10:56:51;;;;;;;6.93;5.77;;;21.50;99.90;;;;;;4974379;28;20023;-37
2023/06/30 10:59:23;;;;;;;7.97;6.15;;;21.50;99.90;;;;;;4972956;28;20105;-37
2023/06/30 11:02:16;;;;;;;8.15;5.82;;;21.50;99.90;;;;;;4974254;28;20057;-38
2023/06/30 11:04:44;;;;;;;8.48;6.07;;;21.40;99.90;;;;;;4972824;28;20023;-37
2023/06/30 11:07:11;;;;;;;7.07;5.90;;;21.50;99.90;;;;;;4973207;28;20033;-37
2023/06/30 11:10:00;;;;;;;8.43;6.20;;;21.50;99.90;;;;;;4973521;28;20110;-36
2023/06/30 11:12:28;;;;;;;9.30;6.05;;;21.50;99.90;;;;;;4972687;28;20042;-37
2023/06/30 11:14:57;;;;;;;9.75;6.30;;;21.50;99.90;;;;;;4972525;28;20046;-37
2023/06/30 11:17:27;;;;;;;9.80;6.18;;;21.40;99.90;;;;;;4972753;28;20038;-38
2023/06/30 11:20:12;;;;;;;8.18;6.10;;;21.50;99.90;;;;;;4972960;28;20101;-37
2023/06/30 11:22:39;;;;;;;9.23;6.05;;;21.50;99.90;;;;;;4972681;28;20402;-38
2023/06/30 11:25:11;;;;;;;7.78;5.97;;;21.50;99.90;;;;;;4972695;28;20018;-35
2023/06/30 11:27:38;;;;;;;8.45;6.22;;;21.50;99.90;;;;;;4972631;28;20023;-37
2023/06/30 11:30:05;;;;;;;7.50;6.15;;;21.50;99.90;;;;;;4972600;28;20509;-38
2023/06/30 11:32:32;;;;;;;7.53;6.18;;;21.50;99.90;;;;;;4971238;28;20498;-35
2023/06/30 11:35:01;;;;;;;8.70;5.90;;;21.50;99.90;;;;;;4972633;28;20027;-37
2023/06/30 11:37:27;;;;;;;19.42;12.90;;;21.50;99.90;;;;;;4971960;28;20034;-37
2023/06/30 11:39:58;;;;;;;25.50;15.70;;;21.50;99.90;;;;;;4978358;28;20030;-37
2023/06/30 11:42:25;;;;;;;22.20;15.60;;;21.50;99.90;;;;;;4986441;28;20085;-38
2023/06/30 11:44:51;;;;;;;21.33;15.13;;;21.40;99.90;;;;;;4990550;28;20029;-38
2023/06/30 11:47:17;;;;;;;20.65;15.23;;;21.30;99.90;;;;;;4991809;28;20466;-38
2023/06/30 11:49:44;;;;;;;21.50;14.63;;;21.30;99.90;;;;;;4991476;28;20046;-38
2023/06/30 11:52:10;;;;;;;21.95;15.18;;;21.30;99.90;;;;;;4991673;28;20437;-39
2023/06/30 11:54:36;;;;;;;22.05;15.60;;;21.40;99.90;;;;;;4991584;28;20057;-38
2023/06/30 11:57:03;;;;;;;17.92;13.68;;;21.40;99.90;;;;;;4991855;28;20026;-40
2023/06/30 11:59:31;;;;;;;20.50;14.02;;;21.40;99.90;;;;;;4991469;28;20046;-38
2023/06/30 12:01:57;;;;;;;18.27;14.07;;;21.40;99.90;;;;;;4991541;28;20092;-38
2023/06/30 12:04:22;;;;;;;18.50;13.90;;;21.40;99.90;;;;;;4991465;28;20023;-38
2023/06/30 12:06:49;;;;;;;15.80;13.00;;;21.50;99.90;;;;;;4991582;28;20018;-39
2023/06/30 12:09:14;;;;;;;19.40;13.85;;;21.50;99.90;;;;;;4991614;28;20027;-38
2023/06/30 12:11:48;;;;;;;18.45;13.55;;;21.40;99.90;;;;;;4991495;28;20030;-38
2023/06/30 12:14:15;;;;;;;17.83;13.38;;;21.50;99.90;;;;;;4991431;28;20018;-38
2023/06/30 12:16:45;;;;;;;17.55;13.55;;;21.50;99.90;;;;;;4991476;28;20034;-37
2023/06/30 12:19:12;;;;;;;18.65;13.05;;;21.50;99.90;;;;;;4991252;28;20393;-39
2023/06/30 12:21:59;;;;;;;18.80;13.57;;;21.50;99.90;;;;;;4991437;28;20041;-38
2023/06/30 12:24:30;;;;;;;18.42;13.35;;;21.50;99.90;;;;;;4991464;28;20034;-37
2023/06/30 12:26:56;;;;;;;17.77;13.02;;;21.50;99.90;;;;;;4991472;28;20386;-37
2023/06/30 12:29:22;;;;;;;15.95;12.80;;;21.50;99.90;;;;;;4991344;28;20018;-37
2023/06/30 12:31:48;;;;;;;17.95;14.07;;;21.50;99.90;;;;;;4994373;28;20037;-37
2023/06/30 12:34:30;;;;;;;16.38;13.02;;;21.50;99.90;;;;;;4994983;28;20026;-37
2023/06/30 12:36:56;;;;;;;17.33;13.32;;;21.50;99.90;;;;;;4995129;28;20026;-36
2023/06/30 12:39:21;;;;;;;16.55;12.43;;;21.50;99.90;;;;;;4994742;28;20500;-38
2023/06/30 12:41:47;;;;;;;16.40;12.68;;;21.50;99.90;;;;;;4994932;28;20057;-38